Чебоксары (Синьялы)

Карта отелей и гостиниц, располагающихся рядом с аэропортом Чебоксары (Синьялы) :

Чебоксары (Синьялы) Чувашия 56° 5' 24.9612" N, 47° 20' 49.92" E
Код аэродрома ИКАО
UWKS
Код аэродрома RU
УВКС
Координаты
N56.09027° E047.34720°
Превышение над уровнем моря
170
Основная полоса
06L/24R
Курс магнитный
059/239
Длина основной ВПП
2516
Ширина основной ВПП
49
Покрытие основной ВПП
Твёрдое (асфальтобетон)
Освещение ВПП
Постоянное
Тип: 
Аэродром
Класс аэродрома: 
Международный
Принадлежность: 
ГА
Статус: 
Действующий
E-mail аэродрома: 
pds-navi21@mail.ru
Страна: 
Россия
Регион: 
Чувашия
Дополнительная информация: 
Нкр.=(700)м, ВС до 65 т. Военный индекс XWKS / ЬВКС
Погода: 

Авиационная погода в Чебоксарах

Регион: 
Погода METAR: 
UWKS 171330Z 07004G09MPS CAVOK 13/M08 Q1024 R06/010060 NOSIG RMK QFE753
Время наблюдения
2021-04-17T13:30:00Z
Температура C
13.0
Точка росы
-8.0
Направление ветра
70
Скорость ветра (узлы)
8
Метео видимость
6.21
Явления погоды
Условия полета
VFR
Аэропорт подробнее: 

Найти трансфер

С помощью этой формы Вы можете найти трансфер из аэропорта Чебоксары (Синьялы) в город, аэропорт или вокзал:

Карта места

Javascript is required to view this map.

Погода в аэропортах:

Авиационная погода в Гомеле

Регион: 
Погода METAR: 
UMGG 171330Z 10004MPS 9999 -SHRA BKN045CB OVC100 12/02 Q1018 R10/D NOSIG
Время наблюдения
2021-04-17T13:30:00Z
Температура C
12.0
Точка росы
2.0
Направление ветра
100
Скорость ветра (узлы)
8
Метео видимость
6.21
Явления погоды
-SHRA
Условия полета
VFR
Аэропорт подробнее: 

Авиационная погода в Вардё

Регион: 
Погода METAR: 
ENSS 161920Z 26018KT 9999 -RA FEW026 SCT043 03/01 Q1025 RMK WIND 500FT 27031KT
Время наблюдения
2021-04-16T19:20:00Z
Температура C
3.0
Точка росы
1.0
Направление ветра
260
Скорость ветра (узлы)
18
Метео видимость
6.21
Явления погоды
-RA
Условия полета
VFR

Авиационная погода в аэропорту Новый

Регион: 
Погода METAR: 
UHHH 171330Z 31001MPS 8000 3700NE FU NSC 02/02 Q1012 R23R/090060 NOSIG RMK QFE753/1004
Время наблюдения
2021-04-17T13:30:00Z
Температура C
2.0
Точка росы
2.0
Направление ветра
310
Скорость ветра (узлы)
2
Метео видимость
4.97
Явления погоды
FU
Условия полета
MVFR
Аэропорт подробнее: 

Авиационная погода в Вадсё

Регион: 
Погода METAR: 
ENVD 171320Z 05008KT 4000 DZ BKN004 01/00 Q1032
Время наблюдения
2021-04-17T13:20:00Z
Температура C
1.0
Точка росы
0.0
Направление ветра
50
Скорость ветра (узлы)
8
Метео видимость
2.49
Явления погоды
DZ
Условия полета
LIFR